Time;durP1;ratioP1;P1;durP2;ratioP2;P2;SDS_P1;SDS_P2;PMS_P1;PMS_P2;Temp;Humidity;BMP_temperature;BMP_pressure;BME280_temperature;BME280_humidity;BME280_pressure;Samples;Min_cycle;Max_cycle;Signal;HPM_P1;HPM_P2
2022/02/12 00:00:24;;;;;;;15.63;13.17;;;-0.80;99.90;;;-0.10;93.07;99587.59;5142634;28;20215;-64
2022/02/12 00:02:58;;;;;;;16.67;12.47;;;-0.80;99.90;;;-0.06;94.02;99582.28;5139735;28;20234;-63
2022/02/12 00:05:31;;;;;;;14.97;12.50;;;-0.70;99.90;;;-0.02;94.50;99574.41;5148831;28;20210;-64
2022/02/12 00:08:05;;;;;;;17.97;13.43;;;-0.70;99.90;;;0.03;94.66;99571.53;5142716;28;20417;-63
2022/02/12 00:10:39;;;;;;;16.70;13.70;;;-0.60;99.90;;;-0.05;95.06;99558.94;5143495;28;20204;-63
2022/02/12 00:13:12;;;;;;;16.63;13.47;;;-0.70;99.90;;;-0.07;94.94;99560.34;5137385;28;20221;-63
2022/02/12 00:15:45;;;;;;;16.57;12.90;;;-0.70;99.90;;;-0.06;94.67;99562.16;5139487;28;20204;-63
2022/02/12 00:18:18;;;;;;;14.80;12.27;;;-0.70;99.90;;;-0.11;95.17;99560.69;5142552;28;20306;-63
2022/02/12 00:20:52;;;;;;;14.93;13.20;;;-0.80;99.90;;;-0.11;93.78;99563.19;5134797;28;20212;-64
2022/02/12 00:23:25;;;;;;;15.57;12.80;;;-0.80;99.90;;;-0.13;94.57;99562.09;5143520;28;20234;-63
2022/02/12 00:25:59;;;;;;;14.33;12.77;;;-0.80;99.90;;;-0.09;94.80;99564.28;5149010;28;20206;-63
2022/02/12 00:28:32;;;;;;;15.33;11.80;;;-0.80;99.90;;;-0.11;94.74;99558.16;5143354;28;20213;-63
2022/02/12 00:31:06;;;;;;;14.17;12.67;;;-0.80;99.90;;;-0.16;94.19;99564.22;5138249;28;20208;-63
2022/02/12 00:33:39;;;;;;;15.07;12.13;;;-0.90;99.90;;;-0.19;93.81;99563.84;5142391;28;20224;-63
2022/02/12 00:36:12;;;;;;;13.50;12.10;;;-0.90;99.90;;;-0.19;94.07;99558.81;5138760;28;20574;-63
2022/02/12 00:38:45;;;;;;;13.03;11.67;;;-1.00;99.90;;;-0.18;93.68;99555.59;5142350;28;20718;-63
2022/02/12 00:41:19;;;;;;;16.40;12.37;;;-1.00;99.90;;;-0.28;93.88;99552.66;5129527;28;20660;-63
2022/02/12 00:43:52;;;;;;;12.73;11.33;;;-1.10;99.90;;;-0.28;94.14;99552.66;5143170;28;20570;-63
2022/02/12 00:46:26;;;;;;;14.23;12.30;;;-1.10;99.90;;;-0.41;93.23;99549.28;5140006;28;20204;-64
2022/02/12 00:48:59;;;;;;;14.73;13.10;;;-1.20;99.90;;;-0.42;93.11;99547.50;5145739;28;20200;-63
2022/02/12 00:51:33;;;;;;;16.70;13.23;;;-1.20;99.90;;;-0.48;93.37;99538.47;5144914;28;20207;-64
2022/02/12 00:54:06;;;;;;;14.70;13.10;;;-1.30;99.90;;;-0.53;93.92;99534.47;5145637;28;20210;-64
2022/02/12 00:56:40;;;;;;;15.23;13.37;;;-1.20;99.90;;;-0.49;94.03;99536.69;5142193;28;20664;-63
2022/02/12 00:59:14;;;;;;;14.83;13.10;;;-1.20;99.90;;;-0.50;94.14;99541.50;5143825;28;20219;-63
2022/02/12 01:01:47;;;;;;;13.77;12.37;;;-1.20;99.90;;;-0.59;94.95;99533.69;5145309;28;20264;-63
2022/02/12 01:04:21;;;;;;;15.57;13.83;;;-1.30;99.90;;;-0.62;94.71;99535.81;5136774;28;20664;-64
2022/02/12 01:06:54;;;;;;;17.77;14.40;;;-1.30;99.90;;;-0.60;94.22;99533.47;5140523;28;20204;-63
2022/02/12 01:09:27;;;;;;;15.33;13.73;;;-1.30;99.90;;;-0.60;95.84;99525.94;5143496;28;20579;-64
2022/02/12 01:12:03;;;;;;;15.97;14.27;;;-1.30;99.90;;;-0.62;95.48;99533.31;5139549;28;20234;-64
2022/02/12 01:14:37;;;;;;;16.03;13.57;;;-1.30;99.90;;;-0.57;95.68;99532.28;5143487;28;20287;-63
2022/02/12 01:17:10;;;;;;;14.93;13.33;;;-1.20;99.90;;;-0.53;95.55;99528.53;5140820;28;20210;-64
2022/02/12 01:19:43;;;;;;;15.23;13.20;;;-1.20;99.90;;;-0.55;95.36;99538.38;5145577;28;20220;-63
2022/02/12 01:22:17;;;;;;;15.70;12.77;;;-1.30;99.90;;;-0.59;94.30;99523.66;5147434;28;20691;-63
2022/02/12 01:24:50;;;;;;;14.83;13.07;;;-1.30;99.90;;;-0.55;95.39;99524.94;5144915;28;20222;-63
2022/02/12 01:27:25;;;;;;;14.00;12.37;;;-1.20;99.90;;;-0.48;94.56;99527.53;5146587;28;20199;-63
2022/02/12 01:29:58;;;;;;;14.90;13.33;;;-1.20;99.90;;;-0.48;94.43;99515.88;5145094;28;20198;-64
2022/02/12 01:32:31;;;;;;;16.83;14.30;;;-1.20;99.90;;;-0.48;94.19;99508.34;5141448;28;20227;-63
2022/02/12 01:35:07;;;;;;;15.40;13.43;;;-1.20;99.90;;;-0.50;94.18;99504.72;5143981;28;20218;-63
2022/02/12 01:37:41;;;;;;;16.67;13.17;;;-1.20;99.90;;;-0.64;94.63;99512.13;5146134;28;20210;-63
2022/02/12 01:40:14;;;;;;;15.27;13.67;;;-1.30;99.90;;;-0.65;94.85;99502.78;5147773;28;20219;-64
2022/02/12 01:42:48;;;;;;;16.80;13.43;;;-1.30;99.90;;;-0.60;95.01;99506.78;5145619;28;20227;-63
2022/02/12 01:45:22;;;;;;;16.57;14.40;;;-1.30;99.90;;;-0.60;94.58;99506.78;5143556;28;20207;-64
2022/02/12 01:47:55;;;;;;;14.97;13.47;;;-1.30;99.90;;;-0.65;94.31;99502.78;5147865;28;20198;-63
2022/02/12 01:50:29;;;;;;;16.50;14.33;;;-1.30;99.90;;;-0.60;94.22;99511.81;5144923;28;20663;-64
2022/02/12 01:53:02;;;;;;;16.50;14.10;;;-1.30;99.90;;;-0.59;95.06;99502.66;5145826;28;20223;-64
2022/02/12 01:55:35;;;;;;;15.37;13.17;;;-1.30;99.90;;;-0.66;93.61;99500.97;5144973;28;20670;-63
2022/02/12 01:58:10;;;;;;;15.90;14.20;;;-1.40;99.90;;;-0.72;93.51;99492.66;5141962;28;20582;-63
2022/02/12 02:00:43;;;;;;;16.10;13.83;;;-1.40;99.90;;;-0.66;94.20;99495.94;5139641;28;20238;-64
2022/02/12 02:03:16;;;;;;;15.53;13.87;;;-1.40;99.90;;;-0.64;94.29;99498.66;5143942;28;20607;-63
2022/02/12 02:05:50;;;;;;;16.87;15.10;;;-1.30;99.90;;;-0.72;93.98;99491.06;5140206;28;20568;-63
2022/02/12 02:08:23;;;;;;;16.90;14.23;;;-1.40;99.90;;;-0.73;93.83;99488.38;5143643;28;20213;-63
2022/02/12 02:10:57;;;;;;;15.10;13.50;;;-1.40;99.90;;;-0.71;95.04;99491.97;5143358;28;20209;-64
2022/02/12 02:13:31;;;;;;;15.63;13.83;;;-1.40;99.90;;;-0.71;94.12;99494.50;5141832;28;20224;-63
2022/02/12 02:16:10;;;;;;;17.87;15.43;;;-1.50;99.90;;;-0.71;94.25;99487.84;5145075;28;20203;-63
2022/02/12 02:18:43;;;;;;;16.57;14.13;;;-1.40;99.90;;;-0.68;93.51;99492.38;5142255;28;20579;-64
2022/02/12 02:21:18;;;;;;;16.67;14.93;;;-1.40;99.90;;;-0.77;93.47;99486.19;5141010;28;20206;-64
2022/02/12 02:23:52;;;;;;;16.37;13.67;;;-1.40;99.90;;;-0.70;93.91;99491.25;5137292;28;20254;-64
2022/02/12 02:26:25;;;;;;;18.83;15.80;;;-1.40;99.90;;;-0.66;93.69;99495.94;5143458;28;20209;-64
2022/02/12 02:28:58;;;;;;;17.37;15.10;;;-1.40;99.90;;;-0.69;95.28;99491.47;5139774;28;20293;-63
2022/02/12 02:31:31;;;;;;;17.70;14.80;;;-1.30;99.90;;;-0.69;94.13;99485.53;5144905;28;20208;-64
2022/02/12 02:34:08;;;;;;;18.40;16.17;;;-1.40;99.90;;;-0.62;94.44;99497.25;5141979;28;20219;-64
2022/02/12 02:36:41;;;;;;;19.53;17.07;;;-1.30;99.90;;;-0.60;94.33;99494.25;5142389;28;20188;-64
2022/02/12 02:39:16;;;;;;;20.13;16.50;;;-1.40;99.90;;;-0.59;94.34;99493.53;5143610;28;20226;-64
2022/02/12 02:41:49;;;;;;;18.47;15.73;;;-1.30;99.90;;;-0.65;93.67;99492.75;5140773;28;20223;-64
2022/02/12 02:44:22;;;;;;;18.63;15.50;;;-1.40;99.90;;;-0.63;94.84;99481.31;5143712;28;20200;-63
2022/02/12 02:46:55;;;;;;;20.77;16.40;;;-1.30;99.90;;;-0.67;94.34;99494.16;5141167;28;20200;-64
2022/02/12 02:49:28;;;;;;;19.57;15.53;;;-1.40;99.90;;;-0.60;94.67;99490.81;5143277;28;20210;-63
2022/02/12 02:57:55;;;;;;;18.27;14.70;;;-1.40;99.90;;;-0.61;94.45;99472.34;5147249;28;20665;-63
2022/02/12 03:00:28;;;;;;;20.63;17.03;;;-1.40;99.90;;;-0.57;93.82;99477.06;5147154;28;20709;-62
2022/02/12 03:03:01;;;;;;;17.80;14.77;;;-1.40;99.90;;;-0.64;94.46;99469.44;5152123;28;20318;-63
2022/02/12 03:05:34;;;;;;;20.90;16.13;;;-1.40;99.90;;;-0.60;93.41;99464.13;5146286;28;20196;-63
2022/02/12 03:08:07;;;;;;;20.50;16.67;;;-1.40;99.90;;;-0.60;92.88;99460.66;5144626;28;20208;-63
2022/02/12 03:10:42;;;;;;;22.17;16.17;;;-1.40;99.90;;;-0.71;93.82;99457.72;5145918;28;20193;-63
2022/02/12 03:13:15;;;;;;;22.50;15.90;;;-1.50;99.90;;;-0.77;93.49;99461.09;5138632;28;20223;-63
2022/02/12 03:15:48;;;;;;;20.30;15.70;;;-1.50;99.90;;;-0.74;93.17;99456.47;5145407;28;20582;-63
2022/02/12 03:18:21;;;;;;;21.20;15.93;;;-1.50;99.90;;;-0.77;94.38;99453.56;5145435;28;20206;-63
2022/02/12 03:20:54;;;;;;;19.50;14.90;;;-1.50;99.90;;;-0.75;94.38;99454.63;5144998;28;20238;-63
2022/02/12 03:23:28;;;;;;;18.47;14.43;;;-1.50;99.90;;;-0.71;92.73;99456.84;5140268;28;20234;-63
2022/02/12 03:26:02;;;;;;;20.37;14.83;;;-1.60;99.90;;;-0.74;93.79;99456.47;5146983;28;20665;-63
2022/02/12 03:28:35;;;;;;;21.27;15.60;;;-1.50;99.90;;;-0.77;93.29;99456.06;5157827;28;20204;-63
2022/02/12 03:31:08;;;;;;;22.13;15.77;;;-1.50;99.90;;;-0.76;93.08;99447.81;5156589;28;20460;-63
2022/02/12 03:33:42;;;;;;;16.57;14.67;;;-1.50;99.90;;;-0.77;92.59;99438.50;5141231;28;20220;-63
2022/02/12 03:36:15;;;;;;;17.77;15.03;;;-1.60;99.90;;;-0.73;93.66;99453.22;5138110;28;20203;-63
2022/02/12 03:38:49;;;;;;;19.97;14.03;;;-1.60;99.90;;;-0.76;91.81;99448.72;5145542;28;20208;-63
2022/02/12 03:41:25;;;;;;;16.07;13.87;;;-1.60;99.90;;;-0.81;92.57;99443.81;5151498;28;20230;-63
2022/02/12 03:43:58;;;;;;;15.03;13.43;;;-1.60;99.90;;;-1.04;91.54;99455.97;5149044;28;20208;-63
2022/02/12 03:46:32;;;;;;;16.03;14.13;;;-1.70;99.90;;;-1.08;93.54;99447.16;5150764;28;20202;-63
2022/02/12 03:49:05;;;;;;;15.60;13.40;;;-1.80;99.90;;;-1.00;92.24;99445.59;5148599;28;20204;-62
2022/02/12 03:51:38;;;;;;;16.03;14.00;;;-1.80;99.90;;;-1.03;92.98;99440.19;5144570;28;22461;-63
2022/02/12 03:54:11;;;;;;;15.90;14.20;;;-1.80;99.90;;;-1.05;91.78;99440.03;5138465;28;20192;-63
2022/02/12 03:56:45;;;;;;;16.73;14.30;;;-1.80;99.90;;;-1.03;91.85;99445.22;5138895;28;20211;-63
2022/02/12 03:59:18;;;;;;;16.10;12.87;;;-1.80;99.90;;;-1.03;91.48;99436.09;5145206;28;20214;-63
2022/02/12 04:01:51;;;;;;;16.80;13.47;;;-1.80;99.90;;;-1.08;91.60;99437.13;5148180;28;20575;-63
2022/02/12 04:04:25;;;;;;;15.97;12.80;;;-1.80;99.90;;;-1.11;92.88;99435.84;5143750;28;20207;-63
2022/02/12 04:06:58;;;;;;;14.37;12.87;;;-1.90;99.90;;;-1.22;92.13;99431.97;5152114;28;20211;-63
2022/02/12 04:09:31;;;;;;;16.87;13.40;;;-1.90;99.90;;;-1.22;92.11;99424.44;5141845;28;20684;-63
2022/02/12 04:12:06;;;;;;;15.13;13.53;;;-1.90;99.90;;;-1.26;92.17;99425.66;5145898;28;20302;-63
2022/02/12 04:14:39;;;;;;;15.13;13.13;;;-1.90;99.90;;;-1.26;92.66;99419.72;5147214;28;20195;-63
2022/02/12 04:17:13;;;;;;;16.17;14.10;;;-2.00;99.90;;;-1.26;92.61;99417.22;5144403;28;20679;-62
2022/02/12 04:19:47;;;;;;;17.53;13.83;;;-2.00;99.90;;;-1.27;92.54;99418.81;5142858;28;20564;-63
2022/02/12 04:22:20;;;;;;;14.63;12.67;;;-2.00;99.90;;;-1.48;90.46;99411.97;5144252;28;20642;-62
2022/02/12 04:24:53;;;;;;;14.07;12.67;;;-2.20;99.90;;;-1.41;92.35;99409.53;5158150;28;20205;-63
2022/02/12 04:27:28;;;;;;;16.23;13.47;;;-2.10;99.90;;;-1.34;90.46;99400.28;5155161;28;20211;-63
2022/02/12 04:30:04;;;;;;;15.97;13.93;;;-2.10;99.90;;;-1.42;91.48;99391.81;5145706;28;20351;-63
2022/02/12 04:32:38;;;;;;;16.87;13.73;;;-2.10;99.90;;;-1.47;91.84;99388.69;5146182;28;20306;-63
2022/02/12 04:35:13;;;;;;;19.03;14.03;;;-2.10;99.90;;;-1.45;91.14;99388.91;5135866;28;20204;-63
2022/02/12 04:37:47;;;;;;;18.03;14.10;;;-2.20;99.90;;;-1.40;92.49;99381.28;5146986;28;20214;-63
2022/02/12 04:40:20;;;;;;;15.93;13.97;;;-2.10;99.90;;;-1.43;92.69;99385.91;5143804;28;20234;-63
2022/02/12 04:42:54;;;;;;;15.50;13.87;;;-2.10;99.90;;;-1.43;91.02;99382.47;5143825;28;20224;-63
2022/02/12 04:45:27;;;;;;;17.70;14.37;;;-2.10;99.90;;;-1.43;91.13;99380.88;5144993;28;20213;-63
2022/02/12 04:48:00;;;;;;;15.93;14.23;;;-2.10;99.90;;;-1.50;92.88;99378.28;5145609;28;20208;-63
2022/02/12 04:50:33;;;;;;;15.83;13.93;;;-2.20;99.90;;;-1.50;91.23;99373.28;5151166;28;20286;-63
2022/02/12 04:53:06;;;;;;;17.40;13.57;;;-2.20;99.90;;;-1.60;92.37;99370.31;5145232;28;20211;-63
2022/02/12 04:55:39;;;;;;;16.47;14.80;;;-2.30;99.90;;;-1.62;91.07;99370.09;5144054;28;20211;-63
2022/02/12 04:58:14;;;;;;;17.10;13.83;;;-2.30;99.90;;;-1.58;92.04;99363.88;5143665;28;20191;-63
2022/02/12 05:00:47;;;;;;;16.33;14.60;;;-2.20;99.90;;;-1.56;91.39;99362.47;5142617;28;20591;-63
2022/02/12 05:03:20;;;;;;;15.73;14.00;;;-2.20;99.90;;;-1.50;92.49;99368.25;5143029;28;20582;-63
2022/02/12 05:05:53;;;;;;;16.67;14.23;;;-2.20;99.90;;;-1.50;91.72;99368.25;5144386;28;20204;-63
2022/02/12 05:08:26;;;;;;;16.60;14.03;;;-2.20;99.90;;;-1.57;91.88;99363.19;5142120;28;20656;-63
2022/02/12 05:10:59;;;;;;;16.53;14.37;;;-2.20;99.90;;;-1.59;92.60;99364.59;5143387;28;20202;-63
2022/02/12 05:13:34;;;;;;;17.33;14.50;;;-2.20;99.90;;;-1.60;92.46;99358.69;5138993;28;20223;-63
2022/02/12 05:16:08;;;;;;;19.50;14.93;;;-2.20;99.90;;;-1.67;91.92;99363.59;5151897;28;20187;-62
2022/02/12 05:18:41;;;;;;;17.27;15.10;;;-2.30;99.90;;;-1.65;92.31;99356.28;5144842;28;20210;-63
2022/02/12 05:21:14;;;;;;;19.43;14.73;;;-2.30;99.90;;;-1.70;91.18;99347.28;5143991;28;20219;-63
2022/02/12 05:23:47;;;;;;;20.70;15.83;;;-2.40;99.90;;;-1.74;91.10;99340.97;5135878;28;20219;-63
2022/02/12 05:26:20;;;;;;;22.97;14.87;;;-2.40;99.90;;;-1.70;92.21;99342.25;5144791;28;20283;-63
2022/02/12 05:28:55;;;;;;;16.17;14.47;;;-2.40;99.90;;;-1.73;92.00;99346.88;5146142;28;20215;-63
2022/02/12 05:31:28;;;;;;;16.27;13.97;;;-2.40;99.90;;;-1.75;92.49;99333.25;5143749;28;20208;-63
2022/02/12 05:34:01;;;;;;;16.53;14.07;;;-2.40;99.90;;;-1.74;92.67;99337.56;5144619;28;20231;-63
2022/02/12 05:36:34;;;;;;;17.20;14.17;;;-2.40;99.90;;;-1.84;91.25;99336.38;5161621;28;20683;-62
2022/02/12 05:39:09;;;;;;;16.30;13.20;;;-2.50;99.90;;;-1.77;92.71;99332.13;5154826;28;20208;-63
2022/02/12 05:41:42;;;;;;;19.70;15.00;;;-2.40;99.90;;;-1.77;91.38;99329.63;5147015;28;20231;-63
2022/02/12 05:44:17;;;;;;;16.40;14.67;;;-2.40;99.90;;;-1.74;91.54;99325.94;5146157;28;20664;-63
2022/02/12 05:46:51;;;;;;;15.50;13.90;;;-2.40;99.90;;;-1.73;91.10;99322.72;5151532;28;20246;-63
2022/02/12 05:49:24;;;;;;;17.30;14.17;;;-2.40;99.90;;;-1.75;92.26;99318.22;5145182;28;20599;-63
2022/02/12 05:51:57;;;;;;;15.13;13.53;;;-2.40;99.90;;;-1.84;90.50;99323.84;5139280;28;20220;-63
2022/02/12 05:54:30;;;;;;;18.57;14.87;;;-2.50;99.90;;;-1.86;90.37;99319.34;5144230;28;20294;-63
2022/02/12 05:57:04;;;;;;;18.60;14.93;;;-2.50;99.90;;;-1.91;90.33;99316.25;5138825;28;20208;-63
2022/02/12 05:59:38;;;;;;;17.97;14.03;;;-2.50;99.90;;;-1.91;92.34;99323.78;5142757;28;20209;-63
2022/02/12 06:02:11;;;;;;;17.30;13.23;;;-2.50;99.90;;;-1.88;91.00;99329.19;5144207;28;20598;-64
2022/02/12 06:04:45;;;;;;;15.93;13.53;;;-2.50;99.90;;;-1.86;90.67;99315.25;5143552;28;20670;-64
2022/02/12 06:07:18;;;;;;;15.50;13.90;;;-2.50;99.90;;;-1.82;92.31;99316.53;5142838;28;20200;-63
2022/02/12 06:09:51;;;;;;;15.20;13.57;;;-2.50;99.90;;;-1.77;91.44;99304.56;5140628;28;20211;-63
2022/02/12 06:12:24;;;;;;;17.00;14.57;;;-2.40;99.90;;;-1.81;91.10;99304.19;5146650;28;20249;-64
2022/02/12 06:15:00;;;;;;;15.40;13.60;;;-2.50;99.90;;;-1.81;90.95;99319.22;5141706;28;20248;-64
2022/02/12 06:17:33;;;;;;;14.87;13.30;;;-2.50;99.90;;;-1.84;91.04;99311.31;5148804;28;20221;-63
2022/02/12 06:20:08;;;;;;;20.57;14.47;;;-2.60;99.90;;;-1.84;92.58;99302.91;5139833;28;20211;-63
2022/02/12 06:22:41;;;;;;;17.37;14.20;;;-2.50;99.90;;;-1.86;91.04;99300.22;5148378;28;20230;-63
2022/02/12 06:25:14;;;;;;;18.43;14.37;;;-2.50;99.90;;;-1.87;90.59;99305.91;5143621;28;20242;-63
2022/02/12 06:27:47;;;;;;;16.00;14.33;;;-2.50;99.90;;;-1.88;90.83;99309.13;5145750;28;20672;-63
2022/02/12 06:30:22;;;;;;;14.80;13.20;;;-2.50;99.90;;;-1.96;91.51;99291.31;5142418;28;20302;-61
2022/02/12 06:32:59;;;;;;;16.47;13.13;;;-2.60;99.90;;;-1.94;92.29;99294.94;5141593;28;20223;-63
2022/02/12 06:35:32;;;;;;;16.33;13.17;;;-2.50;99.90;;;-1.92;91.42;99298.50;5139337;28;20687;-63
2022/02/12 06:38:07;;;;;;;15.53;13.23;;;-2.50;99.90;;;-1.90;92.07;99298.00;5137407;28;20200;-63
2022/02/12 06:40:40;;;;;;;21.10;13.47;;;-2.50;99.90;;;-1.87;90.74;99297.50;5139532;28;20249;-64
2022/02/12 06:43:14;;;;;;;15.20;12.67;;;-2.50;99.90;;;-1.86;91.09;99299.28;5139684;28;20631;-63
2022/02/12 06:45:48;;;;;;;15.00;13.40;;;-2.50;99.90;;;-1.83;91.70;99297.22;5141351;28;20202;-63
2022/02/12 06:48:22;;;;;;;15.17;12.60;;;-2.50;99.90;;;-1.93;90.33;99292.59;5141521;28;20207;-63
2022/02/12 06:50:56;;;;;;;15.07;12.50;;;-2.60;99.90;;;-1.87;90.22;99292.50;5143249;28;20236;-62
2022/02/12 06:53:30;;;;;;;17.03;13.57;;;-2.50;99.90;;;-1.83;90.67;99300.63;5142491;28;20371;-63
2022/02/12 06:56:04;;;;;;;14.17;12.67;;;-2.50;99.90;;;-1.81;90.67;99299.19;5141538;28;20211;-63
2022/02/12 06:58:37;;;;;;;14.40;12.93;;;-2.50;99.90;;;-1.81;90.49;99294.16;5140561;28;20199;-63
2022/02/12 07:01:12;;;;;;;17.60;14.43;;;-2.50;99.90;;;-1.83;91.74;99295.59;5134118;28;20204;-63
2022/02/12 07:03:45;;;;;;;15.23;13.33;;;-2.50;99.90;;;-1.74;90.34;99294.97;5139858;28;20309;-64
2022/02/12 07:06:18;;;;;;;17.27;14.13;;;-2.40;99.90;;;-1.70;91.41;99292.13;5140534;28;20210;-64
2022/02/12 07:08:51;;;;;;;15.37;13.57;;;-2.40;99.90;;;-1.73;91.53;99301.78;5138067;28;20203;-64
2022/02/12 07:11:24;;;;;;;16.67;14.87;;;-2.40;99.90;;;-1.69;89.94;99293.94;5143446;28;20648;-64
2022/02/12 07:13:58;;;;;;;17.13;15.33;;;-2.40;99.90;;;-1.52;91.50;99304.47;5144827;28;20213;-64
2022/02/12 07:16:33;;;;;;;15.27;13.47;;;-2.20;99.90;;;-1.31;90.40;99295.38;5144989;28;20660;-64
2022/02/12 07:19:06;;;;;;;15.67;14.07;;;-1.90;99.90;;;-1.10;90.27;99290.53;5144661;28;20587;-63
2022/02/12 07:21:39;;;;;;;15.80;13.57;;;-1.70;99.90;;;-0.86;89.78;99294.28;5139434;28;20227;-64
2022/02/12 07:24:15;;;;;;;16.03;14.00;;;-1.50;99.90;;;-0.60;88.92;99297.47;5136166;28;20306;-63
2022/02/12 07:26:48;;;;;;;17.57;14.50;;;-1.30;99.90;;;-0.54;88.73;99291.63;5143056;28;20208;-63
2022/02/12 07:29:21;;;;;;;16.80;14.20;;;-1.20;99.90;;;-0.34;88.81;99285.63;5144274;28;20306;-63
2022/02/12 07:31:55;;;;;;;17.73;15.90;;;-1.00;99.90;;;-0.14;88.16;99285.50;5142534;28;20218;-63
2022/02/12 07:34:28;;;;;;;17.33;13.80;;;-0.80;99.90;;;0.03;87.69;99282.53;5142684;28;20205;-63
2022/02/12 07:37:01;;;;;;;13.50;11.97;;;-0.70;99.90;;;0.21;87.44;99284.75;5142618;28;20204;-62
2022/02/12 07:39:35;;;;;;;16.73;14.80;;;-0.40;99.90;;;0.40;86.97;99286.22;5141882;28;20201;-60
2022/02/12 07:42:08;;;;;;;18.47;16.67;;;-0.20;99.90;;;0.62;85.64;99292.16;5140725;28;20599;-63
2022/02/12 07:44:41;;;;;;;17.63;15.73;;;-0.10;99.90;;;0.84;83.52;99287.16;5137570;28;20206;-62
2022/02/12 07:47:15;;;;;;;17.73;16.03;;;0.00;99.90;;;1.03;82.00;99295.22;5147054;28;20254;-63
2022/02/12 07:49:49;;;;;;;26.50;23.83;;;0.10;99.90;;;1.02;82.19;99290.94;5139859;28;20296;-63
2022/02/12 07:52:22;;;;;;;18.40;16.60;;;0.10;99.90;;;1.12;82.06;99291.28;5143930;28;20320;-64
2022/02/12 07:54:55;;;;;;;16.40;14.60;;;0.20;99.90;;;1.37;80.73;99291.59;5146041;28;20659;-62
2022/02/12 07:57:28;;;;;;;18.27;16.50;;;0.30;99.90;;;1.48;79.90;99302.19;5142230;28;20213;-61
2022/02/12 08:00:01;;;;;;;15.93;13.00;;;0.40;99.90;;;1.59;79.49;99308.47;5143490;28;20203;-61
2022/02/12 08:02:36;;;;;;;14.17;12.57;;;0.50;99.90;;;1.74;78.21;99305.16;5139451;28;20651;-62
2022/02/12 08:05:10;;;;;;;15.73;14.13;;;0.60;99.90;;;1.86;78.02;99310.72;5143924;28;20206;-62
2022/02/12 08:07:43;;;;;;;20.27;17.77;;;0.60;99.90;;;1.95;77.64;99309.25;5138294;28;20206;-61
2022/02/12 08:13:08;;;;;;;18.97;16.97;;;0.70;99.90;;;2.05;76.84;99298.56;5138651;28;20216;-62
2022/02/12 08:15:42;;;;;;;17.13;15.43;;;0.90;99.90;;;1.91;76.40;99298.63;5142773;28;20202;-62
2022/02/12 08:18:17;;;;;;;15.43;13.83;;;1.00;99.90;;;2.07;77.67;99296.25;5134998;28;20204;-62
2022/02/12 08:20:50;;;;;;;17.03;15.20;;;1.20;99.90;;;2.07;78.61;99289.56;5139436;28;20370;-62
2022/02/12 08:23:23;;;;;;;14.27;12.07;;;1.40;99.90;;;2.21;77.20;99293.63;5140976;28;20322;-62
2022/02/12 08:25:57;;;;;;;14.97;13.23;;;1.60;99.90;;;2.26;77.53;99289.97;5140785;28;20298;-62
2022/02/12 08:28:30;;;;;;;15.37;12.90;;;1.60;99.90;;;2.19;78.95;99287.53;5137968;28;20212;-62
2022/02/12 08:31:03;;;;;;;14.63;13.10;;;1.60;99.90;;;2.48;77.82;99288.25;5143706;28;20212;-63
2022/02/12 08:33:37;;;;;;;15.97;14.33;;;1.80;99.90;;;2.79;77.33;99289.13;5147051;28;20224;-62
2022/02/12 08:36:10;;;;;;;19.33;16.00;;;2.00;99.90;;;2.99;76.46;99291.31;5143401;28;20211;-63
2022/02/12 08:38:44;;;;;;;19.17;16.27;;;2.10;99.90;;;3.04;76.16;99291.06;5150792;28;20654;-61
2022/02/12 08:41:17;;;;;;;21.23;17.20;;;2.30;99.90;;;3.16;75.86;99292.41;5143670;28;20196;-63
2022/02/12 08:43:50;;;;;;;21.87;19.53;;;2.50;99.90;;;3.28;75.39;99281.81;5142689;28;20230;-63
2022/02/12 08:46:24;;;;;;;17.63;15.83;;;2.60;99.90;;;3.28;75.55;99279.31;5144394;28;20618;-62
2022/02/12 08:48:59;;;;;;;18.53;16.53;;;2.70;99.90;;;3.50;75.03;99287.56;5139886;28;20683;-62
2022/02/12 08:51:37;;;;;;;22.70;20.40;;;2.80;99.90;;;3.62;75.50;99278.75;5143225;28;20212;-63
2022/02/12 08:54:12;;;;;;;16.73;15.13;;;3.00;99.90;;;3.78;75.00;99273.72;5143352;28;20287;-62
2022/02/12 08:56:46;;;;;;;16.10;14.43;;;3.10;99.90;;;3.88;74.40;99266.34;5144944;28;20237;-63
2022/02/12 08:59:19;;;;;;;16.57;14.83;;;3.10;99.90;;;3.85;75.20;99271.09;5143279;28;20287;-62
2022/02/12 09:02:13;;;;;;;15.30;13.57;;;3.20;99.90;;;3.77;76.13;99261.78;5138485;28;20731;-63
2022/02/12 09:04:47;;;;;;;13.93;12.53;;;3.20;99.90;;;3.93;76.21;99254.19;5135882;28;20667;-63
2022/02/12 09:07:20;;;;;;;13.97;12.50;;;3.40;99.90;;;4.09;76.24;99247.47;5143594;28;20211;-63
2022/02/12 09:09:54;;;;;;;11.80;10.57;;;3.60;99.90;;;4.36;73.75;99243.50;5139228;28;20202;-63
2022/02/12 09:12:27;;;;;;;12.37;10.90;;;3.80;99.90;;;4.34;73.93;99235.72;5143969;28;20225;-63
2022/02/12 09:15:01;;;;;;;11.27;10.17;;;4.00;99.90;;;4.36;75.08;99233.38;5152134;28;20201;-63
2022/02/12 09:17:34;;;;;;;11.47;10.00;;;3.90;99.90;;;4.58;74.70;99228.84;5145809;28;20202;-63
2022/02/12 09:20:10;;;;;;;11.57;9.47;;;4.00;99.90;;;4.49;74.01;99228.81;5144055;28;20201;-61
2022/02/12 09:22:43;;;;;;;11.30;10.20;;;3.90;99.90;;;4.73;74.70;99222.84;5144651;28;20234;-63
2022/02/12 09:25:16;;;;;;;13.40;10.47;;;4.10;99.90;;;4.98;75.14;99226.22;5144351;28;20206;-63
2022/02/12 09:27:49;;;;;;;13.57;10.53;;;4.40;99.90;;;5.05;74.20;99218.47;5142699;28;20571;-62
2022/02/12 09:30:23;;;;;;;12.30;10.70;;;4.40;99.90;;;5.26;73.72;99214.63;5144868;28;20236;-66
2022/02/12 09:32:57;;;;;;;11.60;10.33;;;4.60;99.90;;;5.33;73.31;99209.44;5144828;28;20286;-62
2022/02/12 09:35:56;;;;;;;11.63;10.43;;;4.60;99.90;;;5.45;72.93;99214.84;5142629;28;20223;-63
2022/02/12 09:38:29;;;;;;;14.33;10.90;;;4.80;99.90;;;5.64;71.35;99205.75;5135422;28;20342;-63
2022/02/12 09:41:02;;;;;;;11.67;10.57;;;5.00;99.90;;;5.66;71.55;99210.97;5150064;28;21778;-64
2022/02/12 09:43:36;;;;;;;17.00;12.07;;;5.10;99.90;;;5.63;72.70;99211.56;5146822;28;20224;-64
2022/02/12 09:47:14;;;;;;;12.50;11.20;;;5.10;99.90;;;5.77;72.41;99212.03;5145305;28;20285;-62
2022/02/12 09:49:49;;;;;;;11.80;9.97;;;5.10;99.90;;;5.94;72.14;99213.69;5138851;28;20210;-63
2022/02/12 09:52:29;;;;;;;13.73;10.13;;;5.40;99.90;;;6.01;71.37;99206.81;5143259;28;20707;-61
2022/02/12 09:55:05;;;;;;;12.50;10.43;;;5.50;99.90;;;6.21;72.05;99203.66;5142874;28;20199;-58
2022/02/12 09:57:39;;;;;;;11.97;10.67;;;5.70;99.90;;;6.49;69.45;99196.09;5144237;28;20200;-63
2022/02/12 10:00:15;;;;;;;10.27;8.27;;;5.90;99.90;;;6.46;69.01;99198.34;5144448;28;20199;-60
2022/02/12 10:02:49;;;;;;;8.67;7.87;;;5.90;99.90;;;6.44;66.92;99197.31;5141183;28;20223;-60
2022/02/12 10:05:27;;;;;;;12.07;8.10;;;5.80;99.90;;;6.48;68.26;99192.69;5141076;28;20676;-61
2022/02/12 10:08:15;;;;;;;12.27;7.80;;;6.00;99.90;;;6.62;67.43;99188.91;5143177;28;20205;-61
2022/02/12 10:10:51;;;;;;;7.37;6.67;;;6.10;99.90;;;6.65;65.25;99184.09;5139820;28;20209;-61
2022/02/12 10:13:29;;;;;;;13.03;7.80;;;6.10;99.90;;;6.80;66.13;99186.28;5141996;28;20262;-60
2022/02/12 10:16:06;;;;;;;7.57;6.17;;;6.30;99.90;;;6.92;60.69;99182.31;5142407;28;20196;-60
2022/02/12 10:18:39;;;;;;;7.13;5.63;;;6.60;99.90;;;6.72;62.42;99172.84;5139108;28;20292;-59
2022/02/12 10:21:13;;;;;;;8.63;6.50;;;6.50;99.90;;;6.74;63.59;99169.72;5140513;28;20203;-61
2022/02/12 10:23:47;;;;;;;7.60;6.20;;;6.40;99.90;;;6.79;63.17;99161.63;5133239;28;20227;-60
2022/02/12 10:26:21;;;;;;;7.33;6.37;;;6.40;99.90;;;6.64;61.73;99162.00;5143874;28;20207;-60
2022/02/12 10:29:01;;;;;;;10.40;6.60;;;6.30;99.90;;;6.51;61.11;99159.94;5139547;28;20204;-60
2022/02/12 10:31:44;;;;;;;7.07;6.27;;;6.20;99.90;;;6.66;61.92;99145.22;5144040;28;20290;-58
2022/02/12 10:34:17;;;;;;;7.67;5.83;;;6.30;99.90;;;6.89;60.33;99146.47;5145063;28;20202;-60
2022/02/12 10:36:51;;;;;;;10.27;6.43;;;6.50;99.90;;;6.91;60.52;99152.59;5141624;28;20196;-60
2022/02/12 10:39:25;;;;;;;9.27;5.67;;;6.50;99.90;;;6.74;60.49;99139.22;5136079;28;20213;-60
2022/02/12 10:42:06;;;;;;;7.67;5.70;;;6.30;99.90;;;6.69;61.12;99135.34;5144392;28;20230;-58
2022/02/12 10:44:39;;;;;;;9.63;6.03;;;6.30;99.90;;;6.71;62.25;99143.13;5143194;28;20279;-60
2022/02/12 10:47:13;;;;;;;8.20;5.90;;;6.30;99.90;;;6.90;59.59;99136.47;5144990;28;20206;-59